Time;durP1;ratioP1;P1;durP2;ratioP2;P2;SDS_P1;SDS_P2;PMS_P1;PMS_P2;Temp;Humidity;BMP_temperature;BMP_pressure;BME280_temperature;BME280_humidity;BME280_pressure;Samples;Min_cycle;Max_cycle;Signal;HPM_P1;HPM_P2
2023/02/18 00:00:26;;;;;;;43.53;25.75;;;10.30;99.90;;;;;;5044041;28;20028;-74
2023/02/18 00:02:54;;;;;;;38.05;23.48;;;10.30;99.90;;;;;;5044028;28;20055;-76
2023/02/18 00:05:21;;;;;;;40.17;24.75;;;10.40;99.90;;;;;;5068216;28;20047;-76
2023/02/18 00:07:47;;;;;;;45.00;26.38;;;10.30;99.90;;;;;;5029858;28;20040;-76
2023/02/18 00:10:15;;;;;;;32.50;21.17;;;10.40;99.90;;;;;;5042694;28;20032;-75
2023/02/18 00:12:42;;;;;;;49.63;28.13;;;10.40;99.90;;;;;;5047846;28;20047;-74
2023/02/18 00:15:09;;;;;;;53.08;29.33;;;10.40;99.90;;;;;;5046324;28;20495;-73
2023/02/18 00:17:36;;;;;;;46.97;26.63;;;10.40;99.90;;;;;;5045427;28;20048;-76
2023/02/18 00:20:03;;;;;;;49.13;28.15;;;10.40;99.90;;;;;;5045282;28;20573;-73
2023/02/18 00:22:30;;;;;;;46.83;26.85;;;10.30;99.90;;;;;;5064016;28;20040;-73
2023/02/18 00:24:56;;;;;;;56.78;30.42;;;10.30;99.90;;;;;;5046411;28;20672;-73
2023/02/18 00:27:23;;;;;;;59.92;30.95;;;10.30;99.90;;;;;;5065162;28;20045;-74
2023/02/18 00:29:49;;;;;;;57.05;30.15;;;10.30;99.90;;;;;;5062294;28;20032;-74
2023/02/18 00:32:15;;;;;;;65.93;30.73;;;10.30;99.90;;;;;;5047323;28;20040;-74
2023/02/18 00:34:42;;;;;;;71.07;33.40;;;10.30;99.90;;;;;;5062139;28;20471;-75
2023/02/18 00:37:08;;;;;;;62.88;30.05;;;10.30;99.90;;;;;;5046651;28;20399;-76
2023/02/18 00:39:34;;;;;;;67.85;32.25;;;10.30;99.90;;;;;;5059333;28;20025;-74
2023/02/18 00:42:01;;;;;;;62.63;30.38;;;10.20;99.90;;;;;;5038036;28;20044;-74
2023/02/18 00:44:27;;;;;;;54.55;27.50;;;10.20;99.90;;;;;;5045474;28;20044;-74
2023/02/18 00:46:53;;;;;;;65.72;30.98;;;10.20;99.90;;;;;;5046799;28;20059;-73
2023/02/18 00:49:19;;;;;;;56.83;28.65;;;10.20;99.90;;;;;;5057422;28;20495;-74
2023/02/18 00:51:46;;;;;;;60.70;30.92;;;10.20;99.90;;;;;;5046093;28;20039;-75
2023/02/18 00:54:12;;;;;;;83.18;36.78;;;10.20;99.90;;;;;;5046397;28;20044;-73
2023/02/18 00:56:38;;;;;;;77.18;33.83;;;10.10;99.90;;;;;;5052126;28;20023;-74
2023/02/18 00:59:04;;;;;;;67.60;32.45;;;10.10;99.90;;;;;;5040196;28;20043;-73
2023/02/18 01:01:31;;;;;;;65.28;30.52;;;10.10;99.90;;;;;;5063732;28;20502;-73
2023/02/18 01:03:57;;;;;;;65.03;30.33;;;10.10;99.90;;;;;;5046317;28;20487;-74
2023/02/18 01:06:24;;;;;;;61.85;30.15;;;10.10;99.90;;;;;;5018402;28;20553;-74
2023/02/18 01:08:50;;;;;;;65.40;29.73;;;10.10;99.90;;;;;;5028756;28;20032;-74
2023/02/18 01:11:16;;;;;;;71.97;33.15;;;10.10;99.90;;;;;;5042605;28;20398;-73
2023/02/18 01:13:43;;;;;;;59.55;27.75;;;10.10;99.90;;;;;;5035309;28;20039;-73
2023/02/18 01:16:09;;;;;;;51.25;25.55;;;10.10;99.90;;;;;;5033913;28;20040;-74
2023/02/18 01:18:37;;;;;;;53.83;26.38;;;10.10;99.90;;;;;;5040023;28;20678;-74
2023/02/18 01:21:07;;;;;;;54.17;26.42;;;10.10;99.90;;;;;;5020361;28;20047;-73
2023/02/18 01:23:37;;;;;;;52.35;25.85;;;10.10;99.90;;;;;;5047729;28;20036;-73
2023/02/18 01:26:04;;;;;;;87.85;36.95;;;10.10;99.90;;;;;;5038746;28;20388;-73
2023/02/18 01:28:30;;;;;;;68.78;31.02;;;10.10;99.90;;;;;;5038930;28;20044;-73
2023/02/18 01:30:57;;;;;;;52.55;26.45;;;10.10;99.90;;;;;;5049260;28;21001;-75
2023/02/18 01:33:24;;;;;;;44.60;24.10;;;10.10;99.90;;;;;;5068178;28;20037;-73
2023/02/18 01:35:52;;;;;;;49.53;25.23;;;10.10;99.90;;;;;;5049385;28;20039;-75
2023/02/18 01:38:18;;;;;;;49.42;26.33;;;10.20;99.90;;;;;;5044519;28;20684;-74
2023/02/18 01:40:51;;;;;;;46.03;23.77;;;10.10;99.90;;;;;;5050101;28;20040;-74
2023/02/18 01:43:19;;;;;;;49.35;25.50;;;10.20;99.90;;;;;;5043502;28;20043;-73
2023/02/18 01:45:45;;;;;;;40.67;20.70;;;10.20;99.90;;;;;;5044560;28;20079;-76
2023/02/18 01:48:16;;;;;;;44.78;21.92;;;10.20;99.90;;;;;;5015062;28;20048;-74
2023/02/18 01:50:53;;;;;;;34.70;19.25;;;10.20;99.90;;;;;;5054275;28;20048;-74
2023/02/18 01:53:25;;;;;;;39.85;19.77;;;10.20;99.90;;;;;;5061695;28;20576;-75
2023/02/18 01:55:52;;;;;;;55.13;27.08;;;10.20;99.90;;;;;;5047848;28;20044;-73
2023/02/18 01:58:19;;;;;;;50.60;27.10;;;10.20;99.90;;;;;;5038622;28;20047;-72
2023/02/18 02:00:45;;;;;;;53.70;28.67;;;10.20;99.90;;;;;;5050808;28;20034;-74
2023/02/18 02:03:11;;;;;;;50.65;27.45;;;10.20;99.90;;;;;;5044377;28;20028;-73
2023/02/18 02:05:37;;;;;;;50.17;26.73;;;10.20;99.90;;;;;;5067892;28;20047;-75
2023/02/18 02:08:05;;;;;;;60.20;31.40;;;10.20;99.90;;;;;;5046811;28;20525;-75
2023/02/18 02:10:57;;;;;;;49.63;25.67;;;10.20;99.90;;;;;;5045658;28;20623;-75
2023/02/18 02:13:41;;;;;;;45.28;25.55;;;10.20;99.90;;;;;;5035718;28;20044;-73
2023/02/18 02:16:25;;;;;;;54.83;30.48;;;10.20;99.90;;;;;;5035814;28;20465;-72
2023/02/18 02:19:10;;;;;;;55.50;29.33;;;10.20;99.90;;;;;;5055237;28;20032;-72
2023/02/18 02:22:08;;;;;;;61.03;32.22;;;10.20;99.90;;;;;;5043762;28;20037;-75
2023/02/18 02:24:57;;;;;;;61.85;28.23;;;10.20;99.90;;;;;;5059751;28;20052;-73
2023/02/18 02:27:54;;;;;;;49.15;27.73;;;10.20;99.90;;;;;;5047476;28;20399;-73
2023/02/18 02:30:49;;;;;;;49.00;26.42;;;10.20;99.90;;;;;;5060782;28;20032;-75
2023/02/18 02:33:55;;;;;;;56.42;26.98;;;10.20;99.90;;;;;;5043570;28;20410;-72
2023/02/18 02:36:48;;;;;;;51.85;27.63;;;10.20;99.90;;;;;;5066285;28;20075;-76
2023/02/18 02:39:32;;;;;;;79.30;35.40;;;10.20;99.90;;;;;;5040555;28;20414;-74
2023/02/18 02:42:04;;;;;;;68.30;32.22;;;10.20;99.90;;;;;;5054993;28;20495;-73
2023/02/18 02:44:36;;;;;;;64.72;31.67;;;10.20;99.90;;;;;;5043837;28;20490;-75
2023/02/18 02:47:35;;;;;;;64.00;33.75;;;10.20;99.90;;;;;;5049986;28;20041;-75
2023/02/18 02:50:16;;;;;;;67.35;34.15;;;10.20;99.90;;;;;;5050489;28;20039;-73
2023/02/18 02:52:58;;;;;;;66.07;32.78;;;10.20;99.90;;;;;;5046097;28;20032;-72
2023/02/18 02:55:24;;;;;;;71.90;35.85;;;10.20;99.90;;;;;;5033187;28;20044;-72
2023/02/18 02:57:54;;;;;;;52.38;28.30;;;10.20;99.90;;;;;;5034697;28;20040;-76
2023/02/18 03:00:49;;;;;;;62.58;33.95;;;10.20;99.90;;;;;;5049193;28;20058;-75
2023/02/18 03:03:36;;;;;;;72.93;35.67;;;10.20;99.90;;;;;;5037178;28;20040;-73
2023/02/18 03:06:50;;;;;;;65.65;35.58;;;10.20;99.90;;;;;;5043714;28;20036;-73
2023/02/18 03:09:42;;;;;;;78.20;38.92;;;10.30;99.90;;;;;;5038999;28;20051;-72
2023/02/18 03:12:28;;;;;;;72.15;36.33;;;10.30;99.90;;;;;;5017150;28;20502;-74
2023/02/18 03:15:18;;;;;;;103.15;44.33;;;10.30;99.90;;;;;;5043945;28;20467;-71
2023/02/18 03:17:56;;;;;;;86.95;39.83;;;10.30;99.90;;;;;;5043999;28;20040;-74
2023/02/18 03:20:42;;;;;;;81.80;40.17;;;10.30;99.90;;;;;;5044437;28;20498;-72
2023/02/18 03:23:14;;;;;;;81.63;37.63;;;10.40;99.90;;;;;;5042907;28;20041;-74
2023/02/18 03:25:41;;;;;;;81.68;39.05;;;10.40;99.90;;;;;;5048206;28;20040;-72
2023/02/18 03:28:16;;;;;;;83.28;38.25;;;10.40;99.90;;;;;;5037459;28;20063;-72
2023/02/18 03:30:52;;;;;;;83.07;38.17;;;10.40;99.90;;;;;;5043754;28;20040;-72
2023/02/18 03:33:34;;;;;;;63.00;32.20;;;10.40;99.90;;;;;;5059953;28;20055;-75
2023/02/18 03:36:01;;;;;;;64.65;31.00;;;10.40;99.90;;;;;;5059783;28;20028;-72
2023/02/18 03:38:28;;;;;;;97.03;40.78;;;10.50;99.90;;;;;;5038734;28;20596;-73
2023/02/18 03:40:56;;;;;;;57.00;30.08;;;10.50;99.90;;;;;;5032264;28;20387;-74
2023/02/18 03:43:23;;;;;;;81.13;34.80;;;10.50;99.90;;;;;;5043389;28;20498;-73
2023/02/18 03:45:49;;;;;;;70.30;33.13;;;10.50;99.90;;;;;;5028942;28;20052;-73
2023/02/18 03:48:16;;;;;;;61.95;31.23;;;10.50;99.90;;;;;;5013820;28;20040;-72
2023/02/18 03:50:43;;;;;;;55.63;27.85;;;10.50;99.90;;;;;;5047340;28;20028;-73
2023/02/18 03:53:09;;;;;;;70.35;31.58;;;10.50;99.90;;;;;;5061248;28;20033;-77
2023/02/18 03:55:36;;;;;;;45.78;24.23;;;10.50;99.90;;;;;;5059818;28;20051;-75
2023/02/18 03:58:03;;;;;;;61.28;27.33;;;10.50;99.90;;;;;;5012578;28;20036;-75
2023/02/18 04:00:29;;;;;;;47.42;24.70;;;10.50;99.90;;;;;;5061117;28;20039;-75
2023/02/18 04:02:55;;;;;;;58.92;26.23;;;10.50;99.90;;;;;;5032520;28;20028;-75
2023/02/18 04:05:21;;;;;;;42.92;22.52;;;10.50;99.90;;;;;;5047302;28;20041;-76
2023/02/18 04:07:48;;;;;;;46.75;23.45;;;10.50;99.90;;;;;;5057921;28;20040;-74
2023/02/18 04:10:14;;;;;;;38.97;20.85;;;10.50;99.90;;;;;;5057414;28;20395;-73
2023/02/18 04:12:40;;;;;;;33.97;20.25;;;10.50;99.90;;;;;;5045799;28;20032;-77
2023/02/18 04:15:07;;;;;;;48.10;20.35;;;10.50;99.90;;;;;;5063529;28;20032;-74
2023/02/18 04:17:34;;;;;;;27.67;16.25;;;10.60;99.90;;;;;;5063926;28;20036;-73
2023/02/18 04:20:00;;;;;;;26.95;15.60;;;10.50;99.90;;;;;;5043016;28;20036;-74
2023/02/18 04:22:26;;;;;;;38.08;18.65;;;10.50;99.90;;;;;;5037566;28;20036;-74
2023/02/18 04:24:52;;;;;;;27.25;16.23;;;10.50;99.90;;;;;;5066117;28;20039;-73
2023/02/18 04:27:19;;;;;;;28.13;15.95;;;10.60;99.90;;;;;;5064630;28;20057;-75
2023/02/18 04:29:45;;;;;;;24.83;14.88;;;10.60;99.90;;;;;;5047152;28;20028;-74
2023/02/18 04:32:11;;;;;;;26.58;16.52;;;10.60;99.90;;;;;;5064101;28;22687;-74
2023/02/18 04:34:38;;;;;;;26.10;15.75;;;10.60;99.90;;;;;;5044910;28;20052;-75
2023/02/18 04:37:04;;;;;;;29.15;17.17;;;10.60;99.90;;;;;;5051528;28;20039;-73
2023/02/18 04:39:30;;;;;;;35.05;17.35;;;10.60;99.90;;;;;;5042250;28;20612;-74
2023/02/18 04:41:57;;;;;;;28.65;15.63;;;10.60;99.90;;;;;;5045292;28;20067;-75
2023/02/18 04:44:23;;;;;;;31.52;17.92;;;10.60;99.90;;;;;;5063274;28;20892;-73
2023/02/18 04:46:49;;;;;;;37.33;18.17;;;10.60;99.90;;;;;;5063448;28;20463;-73
2023/02/18 04:49:15;;;;;;;28.48;15.32;;;10.60;99.90;;;;;;5057246;28;20051;-76
2023/02/18 04:51:42;;;;;;;30.88;15.63;;;10.60;99.90;;;;;;5047324;28;20055;-73
2023/02/18 04:54:08;;;;;;;24.50;13.90;;;10.60;99.90;;;;;;5041799;28;20036;-75
2023/02/18 04:56:34;;;;;;;21.23;12.32;;;10.60;99.90;;;;;;5054081;28;20039;-73
2023/02/18 04:59:00;;;;;;;23.38;11.77;;;10.60;99.90;;;;;;5033317;28;20510;-74
2023/02/18 05:01:27;;;;;;;22.60;12.65;;;10.60;99.90;;;;;;5049605;28;20051;-73
2023/02/18 05:03:53;;;;;;;21.00;11.65;;;10.60;99.90;;;;;;5044189;28;20383;-75
2023/02/18 05:06:19;;;;;;;17.85;10.75;;;10.60;99.90;;;;;;5047261;28;20048;-75
2023/02/18 05:08:45;;;;;;;19.73;11.10;;;10.60;99.90;;;;;;5032637;28;20036;-76
2023/02/18 05:11:12;;;;;;;15.57;8.98;;;10.60;99.90;;;;;;5045847;28;20844;-74
2023/02/18 05:13:38;;;;;;;17.75;10.00;;;10.60;99.90;;;;;;5063752;28;20033;-74
2023/02/18 05:16:04;;;;;;;24.40;11.15;;;10.60;99.90;;;;;;5038931;28;20039;-73
2023/02/18 05:18:31;;;;;;;20.90;10.63;;;10.60;99.90;;;;;;5043780;28;20071;-74
2023/02/18 05:20:57;;;;;;;15.25;9.05;;;10.60;99.90;;;;;;5047747;28;21124;-75
2023/02/18 05:23:24;;;;;;;19.33;10.02;;;10.60;99.90;;;;;;5064228;28;20039;-73
2023/02/18 05:25:51;;;;;;;15.38;8.90;;;10.60;99.90;;;;;;5062747;28;20047;-74
2023/02/18 05:28:17;;;;;;;15.88;9.32;;;10.60;99.90;;;;;;5039715;28;20048;-72
2023/02/18 05:30:43;;;;;;;20.38;10.45;;;10.60;99.90;;;;;;5065203;28;20071;-76
2023/02/18 05:33:09;;;;;;;16.85;9.82;;;10.60;99.90;;;;;;5048686;28;20047;-72
2023/02/18 05:35:36;;;;;;;17.98;9.57;;;10.60;99.90;;;;;;5067712;28;20047;-75
2023/02/18 05:38:02;;;;;;;18.15;9.65;;;10.50;99.90;;;;;;5040369;28;20043;-76
2023/02/18 05:40:29;;;;;;;12.43;7.25;;;10.60;99.90;;;;;;5064791;28;20028;-75
2023/02/18 05:42:55;;;;;;;16.00;9.07;;;10.60;99.90;;;;;;5046077;28;20028;-75
2023/02/18 05:45:21;;;;;;;15.38;8.80;;;10.60;99.90;;;;;;5063302;28;20055;-76
2023/02/18 05:47:47;;;;;;;12.43;7.68;;;10.60;99.90;;;;;;5042431;28;20047;-73
2023/02/18 05:50:14;;;;;;;15.32;8.70;;;10.50;99.90;;;;;;5043846;28;20028;-74
2023/02/18 05:52:40;;;;;;;13.95;8.07;;;10.50;99.90;;;;;;5047117;28;20398;-73
2023/02/18 05:55:06;;;;;;;12.32;6.82;;;10.50;99.90;;;;;;5042863;28;20323;-74
2023/02/18 05:57:33;;;;;;;12.98;7.50;;;10.50;99.90;;;;;;5061967;28;20042;-75
2023/02/18 05:59:59;;;;;;;10.98;7.25;;;10.50;99.90;;;;;;5059869;28;20032;-74
2023/02/18 06:02:25;;;;;;;12.10;7.38;;;10.50;99.90;;;;;;5041461;28;20036;-73
2023/02/18 06:04:51;;;;;;;11.57;7.95;;;10.50;99.90;;;;;;5063805;28;20032;-74
2023/02/18 06:07:19;;;;;;;12.25;7.90;;;10.50;99.90;;;;;;5046292;28;20051;-75
2023/02/18 06:09:46;;;;;;;11.60;7.95;;;10.40;99.90;;;;;;5048720;28;20044;-73
2023/02/18 06:12:12;;;;;;;15.88;9.50;;;10.40;99.90;;;;;;5061531;28;20136;-74
2023/02/18 06:14:41;;;;;;;11.45;7.32;;;10.40;99.90;;;;;;5064592;28;20558;-74
2023/02/18 06:17:11;;;;;;;12.70;7.22;;;10.40;99.90;;;;;;5043254;28;20044;-74
2023/02/18 06:19:38;;;;;;;8.32;5.70;;;10.40;99.90;;;;;;5056163;28;20399;-74
2023/02/18 06:22:05;;;;;;;13.63;8.15;;;10.40;99.90;;;;;;5062991;28;20040;-73
2023/02/18 06:24:31;;;;;;;12.68;7.40;;;10.40;99.90;;;;;;5062202;28;20051;-74
2023/02/18 06:26:58;;;;;;;9.65;7.30;;;10.40;99.90;;;;;;5062465;28;20394;-75
2023/02/18 06:29:24;;;;;;;12.15;8.65;;;10.40;99.90;;;;;;5058595;28;20057;-76
2023/02/18 06:31:51;;;;;;;17.23;10.75;;;10.40;99.90;;;;;;5062132;28;20082;-73
2023/02/18 06:34:17;;;;;;;18.67;11.60;;;10.40;99.90;;;;;;5043400;28;20042;-73
2023/02/18 06:36:43;;;;;;;17.02;11.10;;;10.40;99.90;;;;;;5048972;28;20380;-73
2023/02/18 06:39:09;;;;;;;16.17;11.20;;;10.30;99.90;;;;;;5057309;28;20284;-76
2023/02/18 06:41:36;;;;;;;21.77;12.88;;;10.40;99.90;;;;;;5062374;28;20034;-73
2023/02/18 06:44:02;;;;;;;19.10;11.57;;;10.30;99.90;;;;;;5065194;28;20036;-73
2023/02/18 06:46:28;;;;;;;21.52;13.35;;;10.30;99.90;;;;;;5039314;28;20048;-74
2023/02/18 06:48:55;;;;;;;19.85;12.68;;;10.30;99.90;;;;;;5033415;28;20037;-73
2023/02/18 06:51:21;;;;;;;20.95;13.27;;;10.30;99.90;;;;;;5045993;28;20592;-74
2023/02/18 06:53:47;;;;;;;18.77;12.68;;;10.30;99.90;;;;;;5040651;28;20040;-73
2023/02/18 06:56:13;;;;;;;18.73;11.82;;;10.30;99.90;;;;;;5042738;28;20518;-73
2023/02/18 06:58:40;;;;;;;18.23;11.95;;;10.30;99.90;;;;;;5035828;28;20037;-74
2023/02/18 07:01:07;;;;;;;15.60;9.93;;;10.30;99.90;;;;;;5056116;28;20472;-73
2023/02/18 07:03:33;;;;;;;16.33;10.50;;;10.30;99.90;;;;;;5039781;28;20044;-74
2023/02/18 07:06:00;;;;;;;24.05;12.27;;;10.30;99.90;;;;;;5039750;28;20620;-72
2023/02/18 07:08:26;;;;;;;18.00;10.27;;;10.30;99.90;;;;;;5035184;28;20615;-73
2023/02/18 07:10:52;;;;;;;18.00;9.50;;;10.30;99.90;;;;;;5042161;28;20426;-73
2023/02/18 07:13:19;;;;;;;17.73;8.40;;;10.30;99.90;;;;;;5040257;28;20397;-73
2023/02/18 07:15:45;;;;;;;18.40;10.70;;;10.30;99.90;;;;;;5048111;28;20033;-73
2023/02/18 07:18:11;;;;;;;20.30;11.23;;;10.30;99.90;;;;;;5039199;28;20398;-75
2023/02/18 07:20:37;;;;;;;25.38;12.27;;;10.20;99.90;;;;;;5043514;28;20033;-72
2023/02/18 07:23:04;;;;;;;23.38;13.30;;;10.30;99.90;;;;;;5041287;28;20496;-73
2023/02/18 07:25:30;;;;;;;24.67;13.82;;;10.30;99.90;;;;;;5043770;28;20028;-72
2023/02/18 07:27:56;;;;;;;26.90;16.08;;;10.20;99.90;;;;;;5036468;28;20511;-74
2023/02/18 07:30:23;;;;;;;23.92;14.07;;;10.20;99.90;;;;;;5040566;28;20029;-75
2023/02/18 07:32:49;;;;;;;21.77;13.32;;;10.20;99.90;;;;;;5042233;28;20060;-75
2023/02/18 07:35:16;;;;;;;29.90;15.02;;;10.20;99.90;;;;;;5044722;28;20028;-73
2023/02/18 07:37:47;;;;;;;31.65;17.05;;;10.20;99.90;;;;;;5040831;28;20033;-74
2023/02/18 07:40:16;;;;;;;28.95;16.98;;;10.20;99.90;;;;;;5041542;28;20032;-72
2023/02/18 07:42:42;;;;;;;26.95;15.75;;;10.20;99.90;;;;;;5039859;28;20033;-75
2023/02/18 07:45:10;;;;;;;24.20;14.73;;;10.20;99.90;;;;;;5050454;28;20039;-74
2023/02/18 07:47:36;;;;;;;24.77;14.90;;;10.20;99.90;;;;;;5059685;28;20036;-74
2023/02/18 07:50:04;;;;;;;25.92;15.43;;;10.20;99.90;;;;;;5043017;28;20028;-74
2023/02/18 07:52:31;;;;;;;25.92;14.85;;;10.20;99.90;;;;;;5047502;28;20032;-73
2023/02/18 07:54:57;;;;;;;24.65;14.77;;;10.20;99.90;;;;;;5063771;28;20032;-74
2023/02/18 07:57:23;;;;;;;26.75;13.80;;;10.20;99.90;;;;;;5050826;28;20470;-74
2023/02/18 07:59:49;;;;;;;30.58;15.45;;;10.20;99.90;;;;;;5050866;28;20398;-72
2023/02/18 08:02:19;;;;;;;23.33;13.75;;;10.20;99.90;;;;;;5067061;28;20561;-73
2023/02/18 08:04:46;;;;;;;25.27;13.20;;;10.20;99.90;;;;;;5053775;28;20036;-73
2023/02/18 08:07:13;;;;;;;29.73;14.70;;;10.20;99.90;;;;;;5046877;28;20106;-72
2023/02/18 08:09:40;;;;;;;32.25;14.02;;;10.10;99.90;;;;;;5040971;28;20043;-75
2023/02/18 08:12:07;;;;;;;26.80;12.68;;;10.10;99.90;;;;;;5063045;28;20041;-72
2023/02/18 08:14:33;;;;;;;21.15;12.88;;;10.10;99.90;;;;;;5037755;28;20031;-74
2023/02/18 08:17:00;;;;;;;33.67;13.77;;;10.10;99.90;;;;;;5037521;28;20040;-73
2023/02/18 08:19:26;;;;;;;30.95;14.15;;;10.10;99.90;;;;;;5034791;28;20517;-73
2023/02/18 08:21:52;;;;;;;25.65;10.98;;;10.10;99.90;;;;;;5049414;28;20033;-72
2023/02/18 08:24:18;;;;;;;28.35;11.60;;;10.10;99.90;;;;;;5033927;28;20044;-73
2023/02/18 08:26:45;;;;;;;29.42;10.57;;;10.10;99.90;;;;;;5065285;28;20575;-74
2023/02/18 08:29:11;;;;;;;26.48;9.32;;;10.10;99.90;;;;;;5044198;28;20505;-73
2023/02/18 08:31:37;;;;;;;26.13;9.52;;;10.10;99.90;;;;;;5046669;28;20033;-75
2023/02/18 08:34:04;;;;;;;25.20;9.40;;;10.00;99.90;;;;;;5067339;28;20480;-73
2023/02/18 08:36:30;;;;;;;27.95;7.18;;;10.10;99.90;;;;;;5065187;28;20983;-72
2023/02/18 08:38:57;;;;;;;29.25;7.75;;;10.10;99.90;;;;;;5042914;28;20550;-72
2023/02/18 08:41:23;;;;;;;21.50;6.90;;;10.00;99.90;;;;;;5063411;28;20032;-73
2023/02/18 08:43:49;;;;;;;21.88;6.95;;;10.00;99.90;;;;;;5067514;28;20033;-72
2023/02/18 08:46:16;;;;;;;20.48;6.18;;;10.00;99.90;;;;;;5043641;28;20048;-72
2023/02/18 08:48:44;;;;;;;21.52;7.07;;;10.00;99.90;;;;;;5042701;28;20044;-73
2023/02/18 08:51:17;;;;;;;25.38;6.53;;;10.00;99.90;;;;;;5046542;28;20035;-75
2023/02/18 08:53:45;;;;;;;23.52;5.88;;;10.00;99.90;;;;;;5020163;28;20031;-75
2023/02/18 08:56:13;;;;;;;32.42;7.50;;;10.00;99.90;;;;;;5066642;28;20482;-73
2023/02/18 08:58:40;;;;;;;23.35;6.18;;;10.00;99.90;;;;;;5030200;28;20047;-74
2023/02/18 09:01:09;;;;;;;27.73;6.20;;;10.00;99.90;;;;;;5049535;28;20036;-72
2023/02/18 09:03:36;;;;;;;23.67;6.68;;;10.00;99.90;;;;;;5063642;28;20020;-72
2023/02/18 09:06:03;;;;;;;23.50;5.18;;;10.00;99.90;;;;;;5063983;28;20043;-75
2023/02/18 09:08:29;;;;;;;21.45;4.93;;;10.00;99.90;;;;;;5040660;28;20688;-73
2023/02/18 09:10:58;;;;;;;21.80;5.53;;;10.00;99.90;;;;;;5053048;28;20055;-73
2023/02/18 09:13:26;;;;;;;26.67;4.47;;;9.90;99.90;;;;;;5036446;28;20402;-72
2023/02/18 09:16:05;;;;;;;19.92;4.30;;;9.90;99.90;;;;;;5060925;28;20036;-75
2023/02/18 09:18:31;;;;;;;17.15;4.45;;;9.90;99.90;;;;;;5040756;28;20043;-72
2023/02/18 09:20:59;;;;;;;26.33;4.65;;;9.90;99.90;;;;;;5064901;28;20376;-75
2023/02/18 09:23:28;;;;;;;15.68;3.50;;;9.80;99.90;;;;;;5051385;28;20074;-73
2023/02/18 09:25:54;;;;;;;20.17;3.97;;;9.80;99.90;;;;;;5051293;28;20028;-74
2023/02/18 09:28:20;;;;;;;14.95;3.20;;;9.80;99.90;;;;;;5039423;28;20704;-75
2023/02/18 09:30:47;;;;;;;17.20;3.22;;;9.80;99.90;;;;;;5061892;28;20025;-73
2023/02/18 09:33:13;;;;;;;22.25;3.38;;;9.70;99.90;;;;;;5065934;28;20562;-73
2023/02/18 09:35:41;;;;;;;21.05;3.80;;;9.70;99.90;;;;;;5063593;28;20495;-73
2023/02/18 09:38:09;;;;;;;14.68;3.33;;;9.70;99.90;;;;;;5039096;28;20380;-72
2023/02/18 09:40:39;;;;;;;13.30;2.97;;;9.70;99.90;;;;;;5045922;28;20039;-74
2023/02/18 09:43:06;;;;;;;14.75;4.63;;;9.70;99.90;;;;;;5046478;28;20036;-72
2023/02/18 09:45:33;;;;;;;15.65;5.47;;;9.70;99.90;;;;;;5052454;28;20055;-74
2023/02/18 09:48:01;;;;;;;23.83;6.10;;;9.70;99.90;;;;;;5028450;28;20044;-74
2023/02/18 09:50:34;;;;;;;23.30;6.38;;;9.70;99.90;;;;;;5064201;28;20110;-73
2023/02/18 09:53:02;;;;;;;22.98;7.13;;;9.80;99.90;;;;;;5030714;28;20036;-75
2023/02/18 09:55:37;;;;;;;24.17;6.32;;;9.80;99.90;;;;;;5061878;28;20394;-74
2023/02/18 09:58:16;;;;;;;28.48;7.10;;;9.80;99.90;;;;;;5045084;28;20033;-74
2023/02/18 10:00:46;;;;;;;21.23;6.35;;;9.80;99.90;;;;;;5044827;28;20149;-73
2023/02/18 10:03:16;;;;;;;15.18;5.53;;;9.80;99.90;;;;;;5033573;28;20024;-77
2023/02/18 10:05:59;;;;;;;20.05;6.82;;;9.80;99.90;;;;;;5047640;28;20476;-80
2023/02/18 10:08:30;;;;;;;;;;;9.80;99.90;;;;;;5055390;28;20501;-80
2023/02/18 10:10:57;;;;;;;25.58;6.53;;;9.80;99.90;;;;;;5062321;28;19939;-76
2023/02/18 10:13:27;;;;;;;24.63;6.25;;;9.70;99.90;;;;;;5065279;28;20036;-76
2023/02/18 10:15:54;;;;;;;24.50;7.30;;;9.70;99.90;;;;;;5042928;28;20057;-76
2023/02/18 10:18:39;;;;;;;19.08;5.43;;;9.80;99.90;;;;;;5055941;28;20036;-77
2023/02/18 10:21:10;;;;;;;19.67;5.93;;;9.80;99.90;;;;;;5062730;28;20032;-77
2023/02/18 10:23:40;;;;;;;18.52;5.55;;;9.80;99.90;;;;;;5043883;28;20043;-76
2023/02/18 10:26:16;;;;;;;27.75;6.28;;;9.80;99.90;;;;;;5043264;28;20462;-73
2023/02/18 10:28:43;;;;;;;21.38;6.18;;;9.80;99.90;;;;;;5059023;28;20257;-76
2023/02/18 10:31:15;;;;;;;18.77;5.68;;;9.90;99.90;;;;;;5046187;28;20028;-74
2023/02/18 10:33:48;;;;;;;20.15;5.75;;;9.80;99.90;;;;;;5045826;28;20051;-74
2023/02/18 10:36:29;;;;;;;19.75;5.53;;;9.90;99.90;;;;;;5047434;28;20323;-75
2023/02/18 10:39:31;;;;;;;19.00;5.00;;;9.80;99.90;;;;;;5040420;28;20036;-74
2023/02/18 10:42:07;;;;;;;24.63;5.30;;;9.80;99.90;;;;;;5049027;28;20043;-75
2023/02/18 10:44:55;;;;;;;23.52;5.90;;;9.90;99.90;;;;;;5052761;28;20059;-75
2023/02/18 10:47:24;;;;;;;27.92;6.30;;;9.90;99.90;;;;;;5061518;28;20049;-73
2023/02/18 10:49:56;;;;;;;21.85;4.60;;;10.00;99.90;;;;;;5059905;28;20036;-72
2023/02/18 10:52:35;;;;;;;17.58;5.07;;;10.00;99.90;;;;;;5028044;28;20036;-75
2023/02/18 10:55:08;;;;;;;20.40;5.63;;;10.00;99.90;;;;;;5069501;28;20032;-75
2023/02/18 10:57:50;;;;;;;20.08;6.28;;;9.90;99.90;;;;;;5067251;28;20040;-77
2023/02/18 11:00:25;;;;;;;17.85;5.50;;;9.90;99.90;;;;;;5067495;28;20025;-73
2023/02/18 11:03:25;;;;;;;17.88;6.10;;;9.90;99.90;;;;;;5069492;28;20036;-73
2023/02/18 11:05:55;;;;;;;19.02;5.47;;;9.90;99.90;;;;;;5018610;28;20051;-73
2023/02/18 11:08:26;;;;;;;28.70;7.22;;;9.90;99.90;;;;;;5031668;28;20052;-74
2023/02/18 11:10:54;;;;;;;26.48;6.45;;;9.90;99.90;;;;;;5053363;28;20043;-83
2023/02/18 11:13:27;;;;;;;19.88;6.80;;;9.90;99.90;;;;;;5051603;28;20032;-79
2023/02/18 11:16:00;;;;;;;19.40;7.90;;;9.90;99.90;;;;;;5070781;28;20044;-77
2023/02/18 11:18:29;;;;;;;19.08;8.18;;;9.90;99.90;;;;;;5068484;28;20031;-79
2023/02/18 11:20:58;;;;;;;22.13;8.35;;;10.00;99.90;;;;;;5064794;28;20037;-83
2023/02/18 11:23:25;;;;;;;27.42;8.77;;;10.00;99.90;;;;;;5044060;28;20040;-77
2023/02/18 11:25:58;;;;;;;34.95;11.05;;;10.10;99.90;;;;;;5071116;28;20037;-78
2023/02/18 11:28:49;;;;;;;25.90;9.45;;;10.10;99.90;;;;;;5066078;28;20032;-77
2023/02/18 11:31:23;;;;;;;25.15;9.13;;;10.20;99.90;;;;;;5053045;28;20045;-73
2023/02/18 11:33:56;;;;;;;26.70;8.93;;;10.20;99.90;;;;;;5051366;28;20028;-74
2023/02/18 11:36:32;;;;;;;20.40;8.80;;;10.30;99.90;;;;;;5055914;28;20032;-76
2023/02/18 11:39:26;;;;;;;20.23;9.52;;;10.40;99.90;;;;;;5071183;28;20032;-76
2023/02/18 11:42:02;;;;;;;28.15;8.80;;;10.50;99.90;;;;;;5040893;28;20410;-73
2023/02/18 11:44:37;;;;;;;22.58;8.00;;;10.50;99.90;;;;;;5067604;28;20063;-73
2023/02/18 11:47:18;;;;;;;26.15;9.10;;;10.50;99.90;;;;;;5034608;28;20479;-76
2023/02/18 11:49:59;;;;;;;24.17;8.65;;;10.60;99.90;;;;;;5065093;28;20387;-73
2023/02/18 11:52:47;;;;;;;25.48;9.30;;;10.60;99.90;;;;;;5072023;28;20032;-73
2023/02/18 11:55:21;;;;;;;24.05;9.05;;;10.60;99.90;;;;;;5068289;28;20047;-75
2023/02/18 11:57:58;;;;;;;19.60;8.98;;;10.60;99.90;;;;;;5051540;28;20047;-75
2023/02/18 12:00:43;;;;;;;27.42;9.68;;;10.70;99.90;;;;;;5056174;28;20024;-73
2023/02/18 12:03:43;;;;;;;23.65;9.40;;;10.70;99.90;;;;;;5043027;28;20039;-73
2023/02/18 12:06:33;;;;;;;26.35;10.38;;;10.70;99.90;;;;;;5073664;28;20028;-73
2023/02/18 12:09:17;;;;;;;27.13;10.50;;;10.70;99.90;;;;;;5021981;28;20101;-74
2023/02/18 12:11:49;;;;;;;29.45;10.88;;;10.70;99.90;;;;;;5066830;28;20515;-71
2023/02/18 12:14:21;;;;;;;31.55;10.68;;;10.80;99.90;;;;;;5072255;28;20024;-72
2023/02/18 12:17:07;;;;;;;26.88;11.45;;;10.80;99.90;;;;;;5056841;28;20509;-74
2023/02/18 12:19:45;;;;;;;28.98;10.60;;;10.80;99.90;;;;;;5048557;28;20423;-76
2023/02/18 12:22:40;;;;;;;26.42;10.80;;;10.80;99.90;;;;;;5065859;28;20035;-72
2023/02/18 12:25:28;;;;;;;22.45;11.15;;;10.80;99.90;;;;;;5034982;28;20368;-73
2023/02/18 12:28:08;;;;;;;22.95;10.40;;;10.80;99.90;;;;;;5065236;28;20415;-75
2023/02/18 12:31:07;;;;;;;28.38;12.50;;;10.80;99.90;;;;;;5066390;28;20032;-72
2023/02/18 12:34:09;;;;;;;23.98;10.85;;;10.70;99.90;;;;;;5031642;28;20048;-75
2023/02/18 12:36:48;;;;;;;23.45;11.52;;;10.70;99.90;;;;;;5036977;28;20032;-73
2023/02/18 12:39:33;;;;;;;28.42;11.60;;;10.70;99.90;;;;;;5063852;28;20044;-72
2023/02/18 12:42:41;;;;;;;28.63;14.07;;;10.70;99.90;;;;;;5054497;28;20392;-80
2023/02/18 12:45:13;;;;;;;39.72;17.48;;;10.70;99.90;;;;;;5010003;28;20044;-76
2023/02/18 12:48:06;;;;;;;29.92;16.30;;;10.70;99.90;;;;;;5053864;28;20529;-75
2023/02/18 12:50:57;;;;;;;30.80;13.45;;;10.70;99.90;;;;;;5050075;28;20024;-75
2023/02/18 12:53:38;;;;;;;38.30;15.00;;;10.70;99.90;;;;;;5058197;28;20399;-76